Time;durP1;ratioP1;P1;durP2;ratioP2;P2;SDS_P1;SDS_P2;PMS_P1;PMS_P2;Temp;Humidity;BMP_temperature;BMP_pressure;BME280_temperature;BME280_humidity;BME280_pressure;Samples;Min_cycle;Max_cycle;Signal;HPM_P1;HPM_P2
2021/12/23 00:00:01;;;;;;;2.33;2.17;;;;;;;;;;4968943;28;20209;-66
2021/12/23 00:02:28;;;;;;;2.53;2.33;;;;;;;;;;4970222;28;20207;-66
2021/12/23 00:04:55;;;;;;;3.60;2.53;;;;;;;;;;4969304;28;20218;-66
2021/12/23 00:07:22;;;;;;;4.03;2.27;;;;;;;;;;4972490;28;20581;-66
2021/12/23 00:10:04;;;;;;;4.43;1.67;;;;;;;;;;4969657;28;20679;-66
2021/12/23 00:12:31;;;;;;;2.93;1.20;;;;;;;;;;4969125;28;20208;-65
2021/12/23 00:14:59;;;;;;;0.97;0.63;;;;;;;;;;4967944;28;20582;-66
2021/12/23 00:17:40;;;;;;;1.53;1.33;;;;;;;;;;4971442;28;20257;-66
2021/12/23 00:25:35;;;;;;;1.50;1.13;;;;;;;;;;4969203;28;20216;-66
2021/12/23 00:28:02;;;;;;;1.77;1.67;;;;;;;;;;4967955;28;20668;-66
2021/12/23 00:30:29;;;;;;;1.63;1.20;;;;;;;;;;4970998;28;20665;-66
2021/12/23 00:32:57;;;;;;;2.20;2.00;;;;;;;;;;4967967;28;20211;-66
2021/12/23 00:35:25;;;;;;;1.10;1.10;;;;;;;;;;4968139;28;20612;-66
2021/12/23 00:37:58;;;;;;;1.80;1.30;;;;;;;;;;4965255;28;20635;-66
2021/12/23 00:40:25;;;;;;;3.13;1.30;;;;;;;;;;4970538;28;20278;-65
2021/12/23 00:42:54;;;;;;;1.13;1.13;;;;;;;;;;4967746;28;20230;-66
2021/12/23 00:45:21;;;;;;;1.30;1.10;;;;;;;;;;4967719;28;20209;-66
2021/12/23 00:47:48;;;;;;;2.87;1.07;;;;;;;;;;4967913;28;20216;-66
2021/12/23 00:50:15;;;;;;;1.83;1.30;;;;;;;;;;4970133;28;20229;-66
2021/12/23 00:52:43;;;;;;;1.40;0.90;;;;;;;;;;4970585;28;20669;-66
2021/12/23 00:55:11;;;;;;;5.90;1.53;;;;;;;;;;4967258;28;20696;-66
2021/12/23 00:57:40;;;;;;;1.10;1.10;;;;;;;;;;4972652;28;20220;-66
2021/12/23 01:00:10;;;;;;;1.37;1.30;;;;;;;;;;4972072;28;20729;-66
2021/12/23 01:02:42;;;;;;;2.53;1.33;;;;;;;;;;4974454;28;20210;-66
2021/12/23 01:05:10;;;;;;;1.27;1.17;;;;;;;;;;4974224;28;20236;-66
2021/12/23 01:07:37;;;;;;;1.60;1.50;;;;;;;;;;4974188;28;20210;-66
2021/12/23 01:10:04;;;;;;;2.07;1.97;;;;;;;;;;4970858;28;20743;-66
2021/12/23 01:12:37;;;;;;;1.17;1.17;;;;;;;;;;4973125;28;20224;-65
2021/12/23 01:15:14;;;;;;;1.67;0.97;;;;;;;;;;4971290;28;20230;-66
2021/12/23 01:17:54;;;;;;;1.50;1.47;;;;;;;;;;4973219;28;20213;-65
2021/12/23 01:20:26;;;;;;;1.60;1.13;;;;;;;;;;4972647;28;20216;-66
2021/12/23 01:22:53;;;;;;;0.83;0.50;;;;;;;;;;4971271;28;20230;-65
2021/12/23 01:25:20;;;;;;;3.80;1.43;;;;;;;;;;4973940;28;20957;-66
2021/12/23 01:27:48;;;;;;;1.10;1.03;;;;;;;;;;4970524;28;20205;-66
2021/12/23 01:30:15;;;;;;;3.03;1.30;;;;;;;;;;4972612;28;20275;-65
2021/12/23 01:32:43;;;;;;;2.30;1.47;;;;;;;;;;4971054;28;20219;-66
2021/12/23 01:35:10;;;;;;;2.07;1.43;;;;;;;;;;4972734;28;20203;-65
2021/12/23 01:37:38;;;;;;;0.83;0.83;;;;;;;;;;4969764;28;20220;-65
2021/12/23 01:40:05;;;;;;;1.37;1.37;;;;;;;;;;4972716;28;20308;-65
2021/12/23 01:42:32;;;;;;;1.23;0.97;;;;;;;;;;4970650;28;20213;-66
2021/12/23 01:44:59;;;;;;;2.60;1.57;;;;;;;;;;4970291;28;20232;-65
2021/12/23 01:47:29;;;;;;;2.17;1.40;;;;;;;;;;4965359;28;20832;-65
2021/12/23 01:49:57;;;;;;;1.20;1.17;;;;;;;;;;4964746;28;20313;-65
2021/12/23 01:52:25;;;;;;;3.57;1.57;;;;;;;;;;4966910;28;20209;-65
2021/12/23 01:54:52;;;;;;;2.23;1.53;;;;;;;;;;4944041;29;20231;-65
2021/12/23 01:57:20;;;;;;;1.20;1.10;;;;;;;;;;4947423;28;20208;-65
2021/12/23 01:59:47;;;;;;;2.77;1.83;;;;;;;;;;4943959;29;20207;-66
2021/12/23 02:02:14;;;;;;;1.70;0.80;;;;;;;;;;4949488;28;20214;-65
2021/12/23 02:04:41;;;;;;;1.33;1.33;;;;;;;;;;4944985;29;20239;-65
2021/12/23 02:07:09;;;;;;;4.73;1.60;;;;;;;;;;4949323;28;20210;-65
2021/12/23 02:09:36;;;;;;;2.73;2.53;;;;;;;;;;4943751;28;20211;-66
2021/12/23 02:12:03;;;;;;;1.63;1.53;;;;;;;;;;4950292;29;20673;-65
2021/12/23 02:14:30;;;;;;;3.83;1.40;;;;;;;;;;4945162;29;20206;-64
2021/12/23 02:16:57;;;;;;;1.30;1.10;;;;;;;;;;4949404;29;20210;-63
2021/12/23 02:19:24;;;;;;;2.00;1.70;;;;;;;;;;4951145;29;20207;-65
2021/12/23 02:21:53;;;;;;;2.83;1.60;;;;;;;;;;4951351;29;20215;-64
2021/12/23 02:24:20;;;;;;;0.53;0.53;;;;;;;;;;4949934;29;20235;-64
2021/12/23 02:26:47;;;;;;;0.77;0.77;;;;;;;;;;4950539;29;20207;-64
2021/12/23 02:29:14;;;;;;;1.53;1.43;;;;;;;;;;4955277;28;20211;-64
2021/12/23 02:31:41;;;;;;;2.77;2.57;;;;;;;;;;4953705;29;20214;-64
2021/12/23 02:34:08;;;;;;;0.87;0.87;;;;;;;;;;4953497;29;20203;-64
2021/12/23 02:36:35;;;;;;;1.50;1.40;;;;;;;;;;4953814;29;20209;-64
2021/12/23 02:39:04;;;;;;;2.23;2.03;;;;;;;;;;4953491;29;20203;-64
2021/12/23 02:41:31;;;;;;;1.30;1.27;;;;;;;;;;4953451;29;20682;-65
2021/12/23 02:43:58;;;;;;;2.50;1.57;;;;;;;;;;4953178;29;20230;-65
2021/12/23 02:46:25;;;;;;;2.83;2.20;;;;;;;;;;4953485;29;20248;-65
2021/12/23 02:48:52;;;;;;;1.90;1.43;;;;;;;;;;4950549;28;20744;-65
2021/12/23 02:51:19;;;;;;;2.07;1.47;;;;;;;;;;4952945;29;20216;-65
2021/12/23 02:53:46;;;;;;;0.77;0.50;;;;;;;;;;4962422;28;20242;-65
2021/12/23 02:56:15;;;;;;;3.30;2.00;;;;;;;;;;4973248;28;20245;-65
2021/12/23 02:58:44;;;;;;;2.17;2.07;;;;;;;;;;4952601;29;20274;-65
2021/12/23 03:01:12;;;;;;;1.80;1.63;;;;;;;;;;4951088;29;20220;-65
2021/12/23 03:03:39;;;;;;;1.53;1.43;;;;;;;;;;4952905;29;20653;-65
2021/12/23 03:06:07;;;;;;;1.67;1.57;;;;;;;;;;4970138;28;20229;-65
2021/12/23 03:08:35;;;;;;;1.53;1.53;;;;;;;;;;4960801;28;20581;-65
2021/12/23 03:11:02;;;;;;;1.07;1.07;;;;;;;;;;4951106;29;20207;-65
2021/12/23 03:13:30;;;;;;;2.60;1.53;;;;;;;;;;4950979;29;20214;-65
2021/12/23 03:15:58;;;;;;;4.60;1.87;;;;;;;;;;4953021;29;20244;-65
2021/12/23 03:18:25;;;;;;;5.50;2.03;;;;;;;;;;4953019;29;20809;-65
2021/12/23 03:20:52;;;;;;;1.87;1.63;;;;;;;;;;4952692;28;20238;-65
2021/12/23 03:23:19;;;;;;;1.30;1.17;;;;;;;;;;4952653;29;20255;-65
2021/12/23 03:25:46;;;;;;;2.33;2.13;;;;;;;;;;4952571;29;20219;-65
2021/12/23 03:28:13;;;;;;;1.93;0.77;;;;;;;;;;4952911;29;20715;-65
2021/12/23 03:30:42;;;;;;;0.97;0.97;;;;;;;;;;4952501;29;20962;-65
2021/12/23 03:33:09;;;;;;;1.43;1.40;;;;;;;;;;4952549;29;20221;-64
2021/12/23 03:35:36;;;;;;;2.83;1.37;;;;;;;;;;4952335;29;20226;-65
2021/12/23 03:38:04;;;;;;;1.37;1.03;;;;;;;;;;4952635;29;20217;-65
2021/12/23 03:40:31;;;;;;;3.60;1.20;;;;;;;;;;4952338;29;20207;-65
2021/12/23 03:42:58;;;;;;;1.07;1.07;;;;;;;;;;4952554;29;20217;-65
2021/12/23 03:45:26;;;;;;;1.27;1.23;;;;;;;;;;4952317;29;20270;-65
2021/12/23 03:47:54;;;;;;;1.40;1.30;;;;;;;;;;4952541;29;20218;-65
2021/12/23 03:50:22;;;;;;;3.17;1.10;;;;;;;;;;4951907;29;20227;-65
2021/12/23 03:52:49;;;;;;;1.30;1.20;;;;;;;;;;4953284;28;20229;-65
2021/12/23 03:55:17;;;;;;;2.07;1.50;;;;;;;;;;4963421;28;20882;-65
2021/12/23 03:57:46;;;;;;;2.57;1.37;;;;;;;;;;4956940;28;20209;-65
2021/12/23 04:00:15;;;;;;;1.70;1.23;;;;;;;;;;4958679;28;20210;-65
2021/12/23 04:02:42;;;;;;;2.47;2.37;;;;;;;;;;4952524;28;20210;-65
2021/12/23 04:05:11;;;;;;;1.60;1.50;;;;;;;;;;4952012;29;20230;-64
2021/12/23 04:07:39;;;;;;;5.17;1.63;;;;;;;;;;4952118;28;20218;-65
2021/12/23 04:10:07;;;;;;;2.67;1.63;;;;;;;;;;4950673;28;20849;-65
2021/12/23 04:12:34;;;;;;;2.23;2.13;;;;;;;;;;4952372;28;20220;-65
2021/12/23 04:15:01;;;;;;;2.33;1.50;;;;;;;;;;4951882;29;20199;-65
2021/12/23 04:17:28;;;;;;;2.83;2.33;;;;;;;;;;4952368;28;20215;-65
2021/12/23 04:20:03;;;;;;;1.37;1.20;;;;;;;;;;4953846;28;20220;-64
2021/12/23 04:22:31;;;;;;;4.73;2.93;;;;;;;;;;4951899;29;20273;-65
2021/12/23 04:24:58;;;;;;;3.57;1.77;;;;;;;;;;4955195;28;20306;-65
2021/12/23 04:27:25;;;;;;;2.73;2.53;;;;;;;;;;4952168;29;20252;-65
2021/12/23 04:29:52;;;;;;;2.60;2.43;;;;;;;;;;4963972;28;20207;-65
2021/12/23 04:32:19;;;;;;;2.73;2.53;;;;;;;;;;4970534;28;20210;-65
2021/12/23 04:34:46;;;;;;;4.67;2.60;;;;;;;;;;4955434;28;20209;-65
2021/12/23 04:37:13;;;;;;;1.90;1.47;;;;;;;;;;4965115;28;20216;-65
2021/12/23 04:39:42;;;;;;;2.77;1.80;;;;;;;;;;4964359;28;20220;-65
2021/12/23 04:42:09;;;;;;;1.43;1.33;;;;;;;;;;4971195;28;20207;-65
2021/12/23 04:44:37;;;;;;;1.00;1.00;;;;;;;;;;4956027;28;20234;-64
2021/12/23 04:47:04;;;;;;;1.80;1.50;;;;;;;;;;4960537;28;20221;-65
2021/12/23 04:49:31;;;;;;;1.87;1.77;;;;;;;;;;4961034;28;20240;-64
2021/12/23 04:51:58;;;;;;;1.67;1.47;;;;;;;;;;4968503;28;20208;-65
2021/12/23 04:54:25;;;;;;;2.27;1.87;;;;;;;;;;4957040;28;20237;-64
2021/12/23 04:56:53;;;;;;;20.97;1.67;;;;;;;;;;4958692;28;20208;-65
2021/12/23 04:59:21;;;;;;;1.43;1.37;;;;;;;;;;4970674;28;20676;-65
2021/12/23 05:01:49;;;;;;;2.20;1.50;;;;;;;;;;4944571;28;20240;-65
2021/12/23 05:04:17;;;;;;;2.00;1.90;;;;;;;;;;4956854;28;20229;-65
2021/12/23 05:06:44;;;;;;;3.90;3.17;;;;;;;;;;4950693;29;20203;-65
2021/12/23 05:09:11;;;;;;;1.10;1.10;;;;;;;;;;4950476;29;20210;-65
2021/12/23 05:11:38;;;;;;;2.17;1.67;;;;;;;;;;4952137;28;20225;-65
2021/12/23 05:14:06;;;;;;;2.30;2.00;;;;;;;;;;4950713;29;20213;-65
2021/12/23 05:16:33;;;;;;;0.90;0.90;;;;;;;;;;4969877;28;20558;-65
2021/12/23 05:19:00;;;;;;;2.97;2.10;;;;;;;;;;4979217;28;20220;-65
2021/12/23 05:21:27;;;;;;;2.60;1.83;;;;;;;;;;4975194;28;20214;-65
2021/12/23 05:23:55;;;;;;;2.93;0.93;;;;;;;;;;4970098;28;20214;-66
2021/12/23 05:26:22;;;;;;;3.67;1.63;;;;;;;;;;4969547;28;20283;-63
2021/12/23 05:28:49;;;;;;;3.13;2.53;;;;;;;;;;4970720;28;20199;-63
2021/12/23 05:31:17;;;;;;;2.07;1.50;;;;;;;;;;4979213;28;20206;-64
2021/12/23 05:33:44;;;;;;;4.17;1.73;;;;;;;;;;4987378;28;20228;-64
2021/12/23 05:36:11;;;;;;;0.47;0.47;;;;;;;;;;4969969;28;20217;-64
2021/12/23 05:38:38;;;;;;;3.53;2.27;;;;;;;;;;4969869;28;20584;-64
2021/12/23 05:41:05;;;;;;;2.67;2.40;;;;;;;;;;4971989;28;20663;-63
2021/12/23 05:43:32;;;;;;;1.83;1.80;;;;;;;;;;4970522;28;20251;-63
2021/12/23 05:46:00;;;;;;;2.70;1.63;;;;;;;;;;4973501;28;20229;-64
2021/12/23 05:48:28;;;;;;;2.83;1.77;;;;;;;;;;4972926;28;20220;-64
2021/12/23 05:50:56;;;;;;;4.60;2.17;;;;;;;;;;4974853;28;20226;-64
2021/12/23 05:53:23;;;;;;;1.50;1.40;;;;;;;;;;4973328;28;20246;-64
2021/12/23 05:55:50;;;;;;;2.40;2.17;;;;;;;;;;4972892;28;20217;-64
2021/12/23 05:58:17;;;;;;;1.50;1.40;;;;;;;;;;4972690;28;20214;-64
2021/12/23 06:00:44;;;;;;;2.07;1.97;;;;;;;;;;4973257;28;20218;-64
2021/12/23 06:03:11;;;;;;;1.63;1.10;;;;;;;;;;4972928;28;20214;-64
2021/12/23 06:05:39;;;;;;;2.37;2.00;;;;;;;;;;4972925;28;20640;-63
2021/12/23 06:08:06;;;;;;;3.63;1.93;;;;;;;;;;4972536;28;20210;-64
2021/12/23 06:10:34;;;;;;;1.70;1.57;;;;;;;;;;4972735;28;20206;-64
2021/12/23 06:13:01;;;;;;;2.03;1.27;;;;;;;;;;4972428;28;20206;-64
2021/12/23 06:15:28;;;;;;;2.27;2.00;;;;;;;;;;4972920;28;20226;-64
2021/12/23 06:17:55;;;;;;;2.67;1.23;;;;;;;;;;4972444;28;20925;-64
2021/12/23 06:20:23;;;;;;;1.60;1.50;;;;;;;;;;4972243;28;20218;-64
2021/12/23 06:22:51;;;;;;;4.03;1.70;;;;;;;;;;4961353;28;20207;-64
2021/12/23 06:25:18;;;;;;;1.33;1.33;;;;;;;;;;4962524;28;20759;-65
2021/12/23 06:27:46;;;;;;;2.37;2.03;;;;;;;;;;4972013;28;20265;-64
2021/12/23 06:30:18;;;;;;;2.93;1.90;;;;;;;;;;4972453;28;20206;-64
2021/12/23 06:32:45;;;;;;;1.27;1.27;;;;;;;;;;4972384;28;20256;-64
2021/12/23 06:35:13;;;;;;;1.17;1.13;;;;;;;;;;4972379;28;20201;-64
2021/12/23 06:37:40;;;;;;;1.63;1.53;;;;;;;;;;4972051;28;20679;-64
2021/12/23 06:40:09;;;;;;;2.23;1.93;;;;;;;;;;4971923;28;20217;-64
2021/12/23 06:42:36;;;;;;;2.83;1.70;;;;;;;;;;4971987;28;20209;-64
2021/12/23 06:45:05;;;;;;;5.67;1.80;;;;;;;;;;4969829;28;20238;-64
2021/12/23 06:47:33;;;;;;;1.00;1.00;;;;;;;;;;4963446;28;20677;-65
2021/12/23 06:50:00;;;;;;;2.20;0.97;;;;;;;;;;4957956;28;20229;-64
2021/12/23 06:52:27;;;;;;;2.03;1.70;;;;;;;;;;4972236;28;20599;-64
2021/12/23 06:54:56;;;;;;;2.13;1.97;;;;;;;;;;4971386;28;20244;-64
2021/12/23 06:57:25;;;;;;;2.77;2.53;;;;;;;;;;4971751;28;20218;-64
2021/12/23 06:59:52;;;;;;;5.33;2.07;;;;;;;;;;4972305;28;20564;-65
2021/12/23 07:02:19;;;;;;;5.33;2.47;;;;;;;;;;4972588;28;20213;-65
2021/12/23 07:04:46;;;;;;;3.00;1.30;;;;;;;;;;4970574;28;20582;-64
2021/12/23 07:07:25;;;;;;;3.00;1.87;;;;;;;;;;4961330;28;20223;-64
2021/12/23 07:09:53;;;;;;;1.90;1.80;;;;;;;;;;4972364;28;20226;-64
2021/12/23 07:12:20;;;;;;;2.97;2.47;;;;;;;;;;4972264;28;20199;-65
2021/12/23 07:14:49;;;;;;;2.57;2.33;;;;;;;;;;4972181;28;20896;-65
2021/12/23 07:17:17;;;;;;;2.27;1.60;;;;;;;;;;4972134;28;20636;-64
2021/12/23 07:19:44;;;;;;;3.10;1.93;;;;;;;;;;4972000;28;20211;-65
2021/12/23 07:22:11;;;;;;;2.03;1.73;;;;;;;;;;4971699;28;20206;-64
2021/12/23 07:24:39;;;;;;;5.97;2.60;;;;;;;;;;4971907;28;20217;-64
2021/12/23 07:27:07;;;;;;;4.67;1.93;;;;;;;;;;4971941;28;20635;-64
2021/12/23 07:29:34;;;;;;;4.93;3.10;;;;;;;;;;4971445;28;20230;-64
2021/12/23 07:32:04;;;;;;;3.13;2.00;;;;;;;;;;4971817;28;20217;-65
2021/12/23 07:34:31;;;;;;;3.93;2.50;;;;;;;;;;4971883;28;20211;-65
2021/12/23 07:36:58;;;;;;;2.60;2.33;;;;;;;;;;4972091;28;20213;-64
2021/12/23 07:39:25;;;;;;;4.73;2.80;;;;;;;;;;4971402;28;20678;-65
2021/12/23 07:41:52;;;;;;;2.63;2.43;;;;;;;;;;4972040;28;20217;-66
2021/12/23 07:44:21;;;;;;;3.57;3.10;;;;;;;;;;4969429;28;20207;-65
2021/12/23 07:46:49;;;;;;;5.43;3.03;;;;;;;;;;4971583;28;20230;-66
2021/12/23 07:49:17;;;;;;;2.67;2.47;;;;;;;;;;4970950;28;20242;-66
2021/12/23 07:51:45;;;;;;;2.77;2.57;;;;;;;;;;4971244;28;20214;-66
2021/12/23 07:54:12;;;;;;;3.03;2.27;;;;;;;;;;4969796;28;20244;-64
2021/12/23 07:56:39;;;;;;;4.50;2.87;;;;;;;;;;4969031;28;20214;-65
2021/12/23 07:59:06;;;;;;;3.97;2.30;;;;;;;;;;4971311;28;20221;-65
2021/12/23 08:01:33;;;;;;;6.37;2.70;;;;;;;;;;4970951;28;20218;-65
2021/12/23 08:04:00;;;;;;;3.23;2.93;;;;;;;;;;4970907;28;20198;-65
2021/12/23 08:06:29;;;;;;;6.03;3.07;;;;;;;;;;4970523;28;20230;-65
2021/12/23 08:08:56;;;;;;;4.00;2.10;;;;;;;;;;4957788;28;20233;-65
2021/12/23 08:11:23;;;;;;;6.87;4.37;;;;;;;;;;4970349;28;20225;-65
2021/12/23 08:13:50;;;;;;;5.07;2.70;;;;;;;;;;4971363;28;20444;-65
2021/12/23 08:16:17;;;;;;;5.60;2.57;;;;;;;;;;4970612;28;20210;-65
2021/12/23 08:18:44;;;;;;;4.07;3.60;;;;;;;;;;4964050;28;20217;-65
2021/12/23 08:21:11;;;;;;;2.90;2.70;;;;;;;;;;4970943;28;20229;-66
2021/12/23 08:23:40;;;;;;;4.23;2.53;;;;;;;;;;4971038;28;20206;-65
2021/12/23 08:26:14;;;;;;;4.97;3.43;;;;;;;;;;4971115;28;20246;-65
2021/12/23 08:28:41;;;;;;;5.60;3.10;;;;;;;;;;4971177;28;20206;-65
2021/12/23 08:31:08;;;;;;;3.00;2.73;;;;;;;;;;4971074;28;20214;-66
2021/12/23 08:33:35;;;;;;;2.80;2.60;;;;;;;;;;4966580;28;20203;-65
2021/12/23 08:36:02;;;;;;;7.33;3.27;;;;;;;;;;4969792;28;20203;-65
2021/12/23 08:38:29;;;;;;;3.30;2.93;;;;;;;;;;4970897;28;20211;-66
2021/12/23 08:40:58;;;;;;;6.20;3.57;;;;;;;;;;4970861;28;20575;-65
2021/12/23 08:43:25;;;;;;;3.63;2.73;;;;;;;;;;4970941;28;20211;-65
2021/12/23 08:45:52;;;;;;;7.23;4.33;;;;;;;;;;4970828;28;20227;-65
2021/12/23 08:48:19;;;;;;;3.87;3.33;;;;;;;;;;4963023;28;20907;-65
2021/12/23 08:50:46;;;;;;;3.63;2.27;;;;;;;;;;4970981;28;20241;-66
2021/12/23 08:53:13;;;;;;;4.53;3.30;;;;;;;;;;4970172;28;20234;-66
2021/12/23 08:55:40;;;;;;;7.57;3.00;;;;;;;;;;4970434;28;20625;-66
2021/12/23 08:58:09;;;;;;;5.43;3.50;;;;;;;;;;4966922;28;20203;-66
2021/12/23 09:00:37;;;;;;;4.30;3.90;;;;;;;;;;4970255;28;20215;-67
2021/12/23 09:03:05;;;;;;;4.67;3.43;;;;;;;;;;4969576;28;20281;-64
2021/12/23 09:05:32;;;;;;;6.27;3.97;;;;;;;;;;4970290;28;20230;-69
2021/12/23 09:08:00;;;;;;;3.97;3.43;;;;;;;;;;4969392;28;20214;-63
2021/12/23 09:10:27;;;;;;;4.70;3.57;;;;;;;;;;4969935;28;20214;-63
2021/12/23 09:12:54;;;;;;;19.17;3.77;;;;;;;;;;4969781;28;20211;-66
2021/12/23 09:15:23;;;;;;;5.33;4.10;;;;;;;;;;4983251;28;20208;-66
2021/12/23 09:17:50;;;;;;;7.93;4.90;;;;;;;;;;4971141;28;20219;-65
2021/12/23 09:20:18;;;;;;;6.40;2.70;;;;;;;;;;4972640;28;20215;-66
2021/12/23 09:22:45;;;;;;;2.97;2.73;;;;;;;;;;4973231;28;20219;-64
2021/12/23 09:25:22;;;;;;;9.70;5.27;;;;;;;;;;4970145;28;20208;-67
2021/12/23 09:27:59;;;;;;;4.83;3.33;;;;;;;;;;4971736;28;20199;-67
2021/12/23 09:33:12;;;;;;;8.27;3.77;;;;;;;;;;4972394;28;20347;-65
2021/12/23 09:35:40;;;;;;;6.60;4.20;;;;;;;;;;4970191;28;20218;-65
2021/12/23 09:38:07;;;;;;;5.57;3.37;;;;;;;;;;4972087;28;20239;-63
2021/12/23 09:40:35;;;;;;;8.17;4.90;;;;;;;;;;4972215;28;20671;-64
2021/12/23 09:43:03;;;;;;;4.30;3.00;;;;;;;;;;4972584;28;20657;-61
2021/12/23 09:45:32;;;;;;;4.13;3.73;;;;;;;;;;4970643;28;20740;-65
2021/12/23 09:48:01;;;;;;;8.27;4.53;;;;;;;;;;4973016;28;20221;-66
2021/12/23 09:50:31;;;;;;;11.77;5.00;;;;;;;;;;4973019;28;20729;-70
2021/12/23 09:53:00;;;;;;;8.47;4.90;;;;;;;;;;4970751;28;20240;-66
2021/12/23 09:55:28;;;;;;;8.83;4.03;;;;;;;;;;4973104;28;20209;-70
2021/12/23 09:57:57;;;;;;;6.30;4.37;;;;;;;;;;4972407;28;20215;-65
2021/12/23 10:00:25;;;;;;;6.23;4.00;;;;;;;;;;4971547;28;20210;-64
2021/12/23 10:02:54;;;;;;;5.00;4.30;;;;;;;;;;4969485;28;20209;-64
2021/12/23 10:05:21;;;;;;;6.50;4.97;;;;;;;;;;4969922;28;20215;-64
2021/12/23 10:07:49;;;;;;;13.60;6.10;;;;;;;;;;4972023;28;20236;-64
2021/12/23 10:10:21;;;;;;;11.03;4.50;;;;;;;;;;4972041;28;20225;-63
2021/12/23 10:38:26;;;;;;;10.93;5.40;;;;;;;;;;5116913;28;20257;-65
2021/12/23 10:40:55;;;;;;;8.70;5.80;;;;;;;;;;5116483;28;20196;-65
2021/12/23 10:43:25;;;;;;;9.23;4.63;;;;;;;;;;5116016;28;20201;-66
2021/12/23 10:45:56;;;;;;;10.70;4.80;;;;;;;;;;5117398;28;20254;-66
2021/12/23 10:48:26;;;;;;;5.77;4.50;;;;;;;;;;5116644;28;20284;-66
2021/12/23 10:50:58;;;;;;;16.63;5.87;;;;;;;;;;5101846;28;20229;-66
2021/12/23 10:53:40;;;;;;;6.97;4.70;;;;;;;;;;5095827;28;20233;-65
2021/12/23 10:59:14;;;;;;;12.30;6.63;;;;;;;;;;5093360;28;20257;-66
2021/12/23 11:01:56;;;;;;;10.20;5.97;;;;;;;;;;5097054;28;20228;-66
2021/12/23 11:04:24;;;;;;;9.77;4.50;;;;;;;;;;5097523;28;20209;-66
2021/12/23 11:07:10;;;;;;;11.00;6.00;;;;;;;;;;5095874;28;20225;-65
2021/12/23 11:09:43;;;;;;;11.77;5.23;;;;;;;;;;5097274;28;20206;-65
2021/12/23 11:38:19;;;;;;;12.17;5.63;;;;;;;;;;5084506;28;20252;-65
2021/12/23 11:40:54;;;;;;;8.50;5.73;;;;;;;;;;5081863;28;20668;-63
2021/12/23 11:43:30;;;;;;;9.90;5.70;;;;;;;;;;5083017;28;20729;-63
2021/12/23 11:45:58;;;;;;;7.77;4.30;;;;;;;;;;5082845;28;20202;-63
2021/12/23 11:48:25;;;;;;;8.27;4.43;;;;;;;;;;5081284;28;20203;-62
2021/12/23 11:51:06;;;;;;;10.40;6.03;;;;;;;;;;5082760;28;20318;-69
2021/12/23 11:53:35;;;;;;;10.07;5.27;;;;;;;;;;5084654;28;20213;-65
2021/12/23 11:56:05;;;;;;;12.17;6.50;;;;;;;;;;5081715;28;20679;-70
2021/12/23 11:58:32;;;;;;;12.63;6.10;;;;;;;;;;5080631;28;20315;-70
2021/12/23 12:01:04;;;;;;;10.53;5.53;;;;;;;;;;5084545;28;20686;-67
2021/12/23 12:03:31;;;;;;;18.30;6.00;;;;;;;;;;5081101;28;20227;-71
2021/12/23 12:06:13;;;;;;;11.80;5.47;;;;;;;;;;5085143;28;20193;-72
2021/12/23 12:08:42;;;;;;;13.80;6.53;;;;;;;;;;5080366;28;20226;-77
2021/12/23 12:11:17;;;;;;;12.07;5.73;;;;;;;;;;5081791;28;20215;-70
2021/12/23 12:13:44;;;;;;;28.37;8.80;;;;;;;;;;5085368;28;20243;-69
2021/12/23 12:16:28;;;;;;;12.77;6.27;;;;;;;;;;5082772;28;20297;-67
2021/12/23 12:18:56;;;;;;;11.13;5.37;;;;;;;;;;5080173;28;20203;-69
2021/12/23 12:21:24;;;;;;;14.77;5.87;;;;;;;;;;5082357;28;20200;-78
2021/12/23 12:24:07;;;;;;;10.57;5.13;;;;;;;;;;5081752;28;20211;-73
2021/12/23 12:26:35;;;;;;;9.90;5.47;;;;;;;;;;5082327;28;20687;-73
2021/12/23 12:29:05;;;;;;;14.60;6.37;;;;;;;;;;5081221;28;20747;-75
2021/12/23 12:31:40;;;;;;;11.10;5.97;;;;;;;;;;5082295;28;20686;-77
2021/12/23 12:34:08;;;;;;;11.70;5.80;;;;;;;;;;5080419;28;20229;-75
2021/12/23 12:36:47;;;;;;;13.77;7.77;;;;;;;;;;5079619;28;20298;-70
2021/12/23 12:39:18;;;;;;;9.90;5.77;;;;;;;;;;5082057;28;20256;-62
2021/12/23 12:41:46;;;;;;;8.70;6.20;;;;;;;;;;5080066;28;20198;-63
2021/12/23 12:44:21;;;;;;;14.57;6.20;;;;;;;;;;5085344;28;20199;-67
2021/12/23 12:46:56;;;;;;;10.13;4.93;;;;;;;;;;5090493;28;20202;-64
2021/12/23 12:49:25;;;;;;;13.77;6.23;;;;;;;;;;5081145;28;20486;-66
2021/12/23 12:51:53;;;;;;;9.57;6.07;;;;;;;;;;5074063;28;20344;-66
2021/12/23 12:54:29;;;;;;;14.70;6.20;;;;;;;;;;5068887;28;20220;-66
2021/12/23 12:56:58;;;;;;;10.60;6.30;;;;;;;;;;5073578;28;20219;-66
2021/12/23 12:59:28;;;;;;;13.07;6.40;;;;;;;;;;5086593;28;20210;-66
2021/12/23 13:01:55;;;;;;;14.23;6.60;;;;;;;;;;5081193;28;20215;-66
2021/12/23 13:04:24;;;;;;;13.43;5.97;;;;;;;;;;5066004;28;20230;-67
2021/12/23 13:06:52;;;;;;;13.83;6.67;;;;;;;;;;5082367;28;20203;-66
2021/12/23 13:09:24;;;;;;;15.53;7.23;;;;;;;;;;5077464;28;20664;-66
2021/12/23 13:11:51;;;;;;;10.53;5.97;;;;;;;;;;5083767;28;21131;-66
2021/12/23 13:14:42;;;;;;;15.87;6.40;;;;;;;;;;5084676;28;20277;-67
2021/12/23 13:17:09;;;;;;;14.27;7.77;;;;;;;;;;5080996;28;20547;-67
2021/12/23 13:19:38;;;;;;;8.73;5.53;;;;;;;;;;5076003;28;20206;-65
2021/12/23 13:22:07;;;;;;;10.20;5.50;;;;;;;;;;5087850;28;20206;-66
2021/12/23 13:24:37;;;;;;;10.93;5.80;;;;;;;;;;5078566;28;20207;-66
2021/12/23 13:27:05;;;;;;;10.53;5.77;;;;;;;;;;5089167;28;20232;-66
2021/12/23 13:29:40;;;;;;;12.20;5.87;;;;;;;;;;5086590;28;20213;-63
2021/12/23 13:32:08;;;;;;;18.60;6.70;;;;;;;;;;5080345;28;20801;-65
2021/12/23 13:34:35;;;;;;;15.50;6.30;;;;;;;;;;5083083;28;20986;-66
2021/12/23 13:37:06;;;;;;;15.67;7.00;;;;;;;;;;5085231;28;20707;-66
2021/12/23 13:39:36;;;;;;;13.37;6.63;;;;;;;;;;5081087;28;20476;-67
2021/12/23 13:42:06;;;;;;;10.03;5.50;;;;;;;;;;5085548;28;20238;-67
2021/12/23 13:44:35;;;;;;;13.03;6.83;;;;;;;;;;5083676;28;20216;-66
2021/12/23 13:47:05;;;;;;;20.60;6.87;;;;;;;;;;5081506;28;20214;-67
2021/12/23 13:49:33;;;;;;;11.00;7.07;;;;;;;;;;5078746;28;20231;-68
2021/12/23 13:52:00;;;;;;;14.23;6.30;;;;;;;;;;5079115;28;20216;-66
2021/12/23 13:54:32;;;;;;;11.40;6.07;;;;;;;;;;5082083;28;20208;-64
2021/12/23 13:56:59;;;;;;;14.57;6.80;;;;;;;;;;5083842;28;20209;-65
2021/12/23 13:59:28;;;;;;;9.27;5.77;;;;;;;;;;5078658;28;20685;-66
2021/12/23 14:02:00;;;;;;;13.87;6.23;;;;;;;;;;5078124;28;20212;-65
2021/12/23 14:04:35;;;;;;;16.10;8.13;;;;;;;;;;5085593;28;21042;-67
2021/12/23 14:07:02;;;;;;;12.67;6.13;;;;;;;;;;5084268;28;20704;-65
2021/12/23 14:09:30;;;;;;;20.67;7.07;;;;;;;;;;5085043;28;20204;-67
2021/12/23 14:11:58;;;;;;;10.70;6.00;;;;;;;;;;5085195;28;20207;-66
2021/12/23 14:14:25;;;;;;;14.77;6.33;;;;;;;;;;5082609;28;20747;-66
2021/12/23 14:16:53;;;;;;;15.67;6.87;;;;;;;;;;5080853;28;20196;-66
2021/12/23 14:19:25;;;;;;;11.37;5.53;;;;;;;;;;5084941;28;20219;-65
2021/12/23 14:24:38;;;;;;;25.17;11.60;;;;;;;;;;5066992;28;20475;-65
2021/12/23 14:27:06;;;;;;;13.87;7.67;;;;;;;;;;5083801;28;20212;-66
2021/12/23 14:29:54;;;;;;;14.97;7.43;;;;;;;;;;5076094;28;20220;-66
2021/12/23 14:32:23;;;;;;;16.23;7.43;;;;;;;;;;5069965;28;20285;-66
2021/12/23 14:34:50;;;;;;;22.53;7.80;;;;;;;;;;5082971;28;20685;-66
2021/12/23 14:37:17;;;;;;;16.53;7.10;;;;;;;;;;5082150;28;20211;-67
2021/12/23 14:39:45;;;;;;;12.83;6.63;;;;;;;;;;5075066;28;20214;-66
2021/12/23 14:42:13;;;;;;;13.63;6.87;;;;;;;;;;5081267;28;20205;-66
2021/12/23 14:44:42;;;;;;;15.63;5.93;;;;;;;;;;5084357;28;20219;-66
2021/12/23 14:47:14;;;;;;;10.23;5.57;;;;;;;;;;5082414;28;20673;-67
2021/12/23 14:52:32;;;;;;;10.73;5.73;;;;;;;;;;5083069;28;20267;-65
2021/12/23 14:55:00;;;;;;;15.90;6.30;;;;;;;;;;5077948;28;20871;-66
2021/12/23 14:57:28;;;;;;;14.70;6.70;;;;;;;;;;5082535;28;20207;-66
2021/12/23 14:59:56;;;;;;;19.93;7.03;;;;;;;;;;5076818;28;20342;-66
2021/12/23 15:02:24;;;;;;;13.37;7.07;;;;;;;;;;5087758;28;20236;-65
2021/12/23 15:05:00;;;;;;;15.33;7.23;;;;;;;;;;5085257;28;20800;-64
2021/12/23 15:07:28;;;;;;;17.20;6.87;;;;;;;;;;5088000;28;20796;-64
2021/12/23 15:09:59;;;;;;;14.37;7.70;;;;;;;;;;5087690;28;20210;-61
2021/12/23 15:12:26;;;;;;;12.43;7.30;;;;;;;;;;5088007;28;20206;-68
2021/12/23 15:14:54;;;;;;;18.07;8.47;;;;;;;;;;5087106;28;20245;-70
2021/12/23 15:17:26;;;;;;;19.87;9.20;;;;;;;;;;5087642;28;20210;-67
2021/12/23 15:19:55;;;;;;;22.70;9.93;;;;;;;;;;5087518;28;20222;-67
2021/12/23 15:22:24;;;;;;;21.10;9.60;;;;;;;;;;5087525;28;20205;-67
2021/12/23 15:25:01;;;;;;;18.27;8.63;;;;;;;;;;5087630;28;20213;-66
2021/12/23 15:27:29;;;;;;;13.30;7.60;;;;;;;;;;5067479;28;20209;-66
2021/12/23 15:30:00;;;;;;;17.70;8.93;;;;;;;;;;5067168;28;20223;-67
2021/12/23 15:32:28;;;;;;;20.17;8.47;;;;;;;;;;5067609;28;20212;-64
2021/12/23 15:35:00;;;;;;;19.70;7.13;;;;;;;;;;5066949;28;20211;-70
2021/12/23 15:37:31;;;;;;;15.87;7.90;;;;;;;;;;5085028;28;20261;-67
2021/12/23 15:39:58;;;;;;;13.13;7.33;;;;;;;;;;5087395;28;20307;-67
2021/12/23 15:42:25;;;;;;;12.57;7.00;;;;;;;;;;5086595;28;20224;-67
2021/12/23 15:44:53;;;;;;;15.60;7.77;;;;;;;;;;5087254;28;20208;-69
2021/12/23 15:47:22;;;;;;;13.90;7.27;;;;;;;;;;5087064;28;20211;-68
2021/12/23 15:49:50;;;;;;;14.87;7.37;;;;;;;;;;5086647;28;20237;-70
2021/12/23 15:52:17;;;;;;;14.47;7.40;;;;;;;;;;5085891;28;20221;-68
2021/12/23 15:54:46;;;;;;;15.37;7.30;;;;;;;;;;5087049;28;20564;-67